createdAt,value
2017-09-01T00:00:21.742Z,75.2
2017-09-01T00:01:02.310Z,75.2
2017-09-01T00:01:42.887Z,75.1
2017-09-01T00:02:23.484Z,75.2
2017-09-01T00:03:04.052Z,75.38
2017-09-01T00:03:44.618Z,75.29
2017-09-01T00:04:25.180Z,75.48
2017-09-01T00:05:05.759Z,75.38
2017-09-01T00:05:46.315Z,75.96
2017-09-01T00:06:26.916Z,75.57
2017-09-01T00:07:07.483Z,75
2017-09-01T00:07:48.093Z,75.38
2017-09-01T00:08:28.649Z,75.48
2017-09-01T00:09:09.236Z,75.38
2017-09-01T00:09:49.838Z,75.38
2017-09-01T00:10:30.409Z,75.87
2017-09-01T00:11:10.991Z,75.48
2017-09-01T00:11:51.579Z,75.38
2017-09-01T00:12:32.132Z,74.9
2017-09-01T00:13:12.697Z,74.81
2017-09-01T00:13:53.277Z,75.38
2017-09-01T00:14:33.844Z,75.54
2017-09-01T00:15:14.422Z,75.25
2017-09-01T00:15:54.984Z,75.15
2017-09-01T00:16:35.561Z,74.48
2017-09-01T00:17:16.134Z,74.48
2017-09-01T00:17:56.708Z,74.68
2017-09-01T00:18:37.278Z,73.91
2017-09-01T00:19:17.847Z,74.39
2017-09-01T00:19:58.421Z,74.39
2017-09-01T00:20:41.784Z,73.62
2017-09-01T00:21:22.355Z,73.81
2017-09-01T00:22:02.921Z,74.58
2017-09-01T00:22:43.499Z,74.19
2017-09-01T00:23:24.064Z,74.19
2017-09-01T00:24:04.627Z,74.29
2017-09-01T00:24:45.193Z,74.29
2017-09-01T00:25:25.776Z,75.06
2017-09-01T00:26:06.357Z,74.39
2017-09-01T00:26:46.924Z,74.58
2017-09-01T00:27:27.501Z,74.77
2017-09-01T00:28:08.084Z,74.19
2017-09-01T00:28:48.659Z,74.39
2017-09-01T00:29:29.236Z,75.06
2017-09-01T00:30:09.827Z,74.1
2017-09-01T00:30:50.401Z,74.01
2017-09-01T00:31:31.059Z,73.62
2017-09-01T00:32:11.621Z,73.52
2017-09-01T00:32:52.192Z,73.52
2017-09-01T00:33:32.776Z,73.81
2017-09-01T00:34:13.339Z,73.72
2017-09-01T00:34:53.909Z,74.68
2017-09-01T00:35:34.491Z,74.35
2017-09-01T00:36:15.085Z,74.64
2017-09-01T00:36:55.649Z,74.29
2017-09-01T00:37:36.222Z,74.44
2017-09-01T00:38:16.813Z,74.44
2017-09-01T00:38:57.381Z,74.35
2017-09-01T00:39:37.974Z,74.16
2017-09-01T00:40:18.556Z,74.35
2017-09-01T00:40:59.127Z,75.21
2017-09-01T00:41:39.700Z,75.12
2017-09-01T00:42:20.283Z,75.12
2017-09-01T00:43:00.859Z,74.83
2017-09-01T00:43:41.431Z,74.06
2017-09-01T00:44:21.995Z,73.87
2017-09-01T00:45:02.572Z,74.44
2017-09-01T00:45:43.155Z,74.54
2017-09-01T00:46:23.715Z,75.02
2017-09-01T00:47:04.333Z,75.12
2017-09-01T00:47:44.889Z,74.64
2017-09-01T00:48:25.490Z,74.44
2017-09-01T00:49:06.064Z,74.26
2017-09-01T00:49:46.639Z,74.35
2017-09-01T00:50:27.214Z,75.12
2017-09-01T00:51:07.819Z,75.12
2017-09-01T00:51:48.370Z,74.93
2017-09-01T00:52:28.941Z,75.02
2017-09-01T00:53:09.511Z,74.54
2017-09-01T00:53:50.100Z,74.35
2017-09-01T00:54:30.659Z,75.02
2017-09-01T00:55:11.261Z,74.93
2017-09-01T00:55:51.877Z,74.06
2017-09-01T00:56:32.436Z,74.35
2017-09-01T00:57:13.077Z,74.93
2017-09-01T00:57:53.630Z,74.35
2017-09-01T00:58:34.210Z,74.73
2017-09-01T00:59:14.777Z,75.12
2017-09-01T00:59:55.375Z,75.4
2017-09-01T01:00:35.975Z,75.79
2017-09-01T01:01:16.572Z,75.7
2017-09-01T01:01:57.203Z,75.31
2017-09-01T01:02:37.773Z,75.4
2017-09-01T01:03:18.345Z,75.12
2017-09-01T01:03:58.920Z,75.12
2017-09-01T01:04:39.521Z,74.35
2017-09-01T01:05:20.123Z,74.79
2017-09-01T01:06:00.687Z,75.08
2017-09-01T01:06:41.263Z,75.65
2017-09-01T01:07:21.834Z,75.75
2017-09-01T01:08:02.418Z,75.75
2017-09-01T01:08:42.994Z,75.89
2017-09-01T01:09:23.599Z,75.65
2017-09-01T01:10:04.176Z,75.79
2017-09-01T01:10:44.760Z,76.04
2017-09-01T01:11:25.328Z,75.79
2017-09-01T01:12:05.914Z,75.89
2017-09-01T01:12:46.491Z,76.56
2017-09-01T01:13:27.067Z,76.37
2017-09-01T01:14:07.644Z,76.27
2017-09-01T01:14:48.208Z,76.07
2017-09-01T01:15:28.782Z,76.17
2017-09-01T01:16:09.346Z,76.56
2017-09-01T01:16:49.950Z,76.07
2017-09-01T01:17:30.531Z,76.46
2017-09-01T01:18:11.107Z,76.46
2017-09-01T01:18:51.717Z,76.07
2017-09-01T01:19:32.275Z,75.21
2017-09-01T01:20:12.835Z,75.31
2017-09-01T01:20:53.439Z,75.5
2017-09-01T01:21:34.004Z,75.4
2017-09-01T01:22:14.564Z,75.7
2017-09-01T01:22:55.173Z,75.6
2017-09-01T01:23:35.724Z,75.4
2017-09-01T01:24:16.294Z,75.21
2017-09-01T01:24:56.850Z,75.4
2017-09-01T01:25:37.422Z,75.5
2017-09-01T01:26:17.995Z,75.31
2017-09-01T01:26:58.584Z,75.7
2017-09-01T01:27:39.170Z,75.98
2017-09-01T01:28:19.739Z,76.46
2017-09-01T01:29:00.326Z,76.56
2017-09-01T01:29:40.894Z,76.56
2017-09-01T01:30:21.470Z,76.07
2017-09-01T01:31:02.033Z,76.27
2017-09-01T01:31:42.617Z,76.17
2017-09-01T01:32:23.182Z,76.17
2017-09-01T01:33:03.766Z,76.37
2017-09-01T01:33:44.342Z,76.37
2017-09-01T01:34:24.926Z,76.27
2017-09-01T01:35:05.558Z,75.98
2017-09-01T01:35:46.130Z,75.4
2017-09-01T01:36:26.694Z,75.21
2017-09-01T01:37:07.284Z,75.7
2017-09-01T01:37:47.843Z,75.89
2017-09-01T01:38:28.400Z,75.7
2017-09-01T01:39:08.977Z,75.79
2017-09-01T01:39:49.565Z,75.79
2017-09-01T01:40:30.132Z,75.7
2017-09-01T01:41:10.726Z,76.37
2017-09-01T01:41:51.303Z,76.17
2017-09-01T01:42:31.871Z,76.46
2017-09-01T01:43:12.448Z,76.56
2017-09-01T01:43:53.009Z,75.02
2017-09-01T01:44:33.600Z,74.26
2017-09-01T01:45:14.176Z,74.44
2017-09-01T01:45:54.752Z,74.64
2017-09-01T01:46:35.324Z,74.54
2017-09-01T01:47:15.900Z,74.35
2017-09-01T01:47:56.467Z,74.16
2017-09-01T01:48:37.031Z,74.54
2017-09-01T01:49:17.599Z,74.54
2017-09-01T01:49:58.194Z,73.87
2017-09-01T01:50:38.771Z,73.39
2017-09-01T01:51:19.371Z,73.58
2017-09-01T01:51:59.931Z,73.68
2017-09-01T01:52:40.504Z,73.97
2017-09-01T01:53:21.121Z,73.68
2017-09-01T01:54:01.712Z,73.16
2017-09-01T01:54:42.273Z,73.45
2017-09-01T01:55:22.855Z,73.97
2017-09-01T01:56:03.424Z,73.83
2017-09-01T01:56:44.000Z,73.35
2017-09-01T01:57:24.575Z,73.26
2017-09-01T01:58:05.162Z,73.16
2017-09-01T01:58:45.721Z,73.49
2017-09-01T01:59:26.294Z,73.35
2017-09-01T02:00:06.870Z,73.2
2017-09-01T02:00:47.479Z,72.91
2017-09-01T02:01:28.056Z,73.26
2017-09-01T02:02:08.621Z,72.78
2017-09-01T02:02:49.232Z,72.88
2017-09-01T02:03:29.816Z,73.16
2017-09-01T02:04:10.398Z,73.3
2017-09-01T02:04:50.971Z,73.65
2017-09-01T02:05:31.550Z,73.83
2017-09-01T02:06:12.173Z,73.97
2017-09-01T02:06:52.743Z,73.97
2017-09-01T02:07:33.297Z,73.97
2017-09-01T02:08:13.862Z,74.06
2017-09-01T02:08:54.439Z,74.06
2017-09-01T02:09:35.010Z,73.97
2017-09-01T02:10:15.594Z,73.87
2017-09-01T02:10:56.213Z,73.87
2017-09-01T02:11:36.798Z,74.54
2017-09-01T02:12:17.365Z,73.55
2017-09-01T02:12:57.979Z,73.58
2017-09-01T02:13:38.549Z,73.68
2017-09-01T02:14:19.112Z,73.58
2017-09-01T02:14:59.688Z,73.35
2017-09-01T02:15:40.260Z,72.68
2017-09-01T02:16:20.854Z,72.88
2017-09-01T02:17:01.426Z,73.74
2017-09-01T02:17:41.998Z,73.83
2017-09-01T02:18:22.562Z,73.83
2017-09-01T02:19:03.154Z,73.83
2017-09-01T02:19:43.730Z,73.83
2017-09-01T02:20:24.300Z,73.35
2017-09-01T02:21:04.869Z,73.07
2017-09-01T02:21:45.466Z,73.83
2017-09-01T02:22:26.070Z,74.12
2017-09-01T02:23:06.649Z,73.65
2017-09-01T02:23:47.234Z,73.83
2017-09-01T02:24:27.787Z,74.02
2017-09-01T02:25:08.382Z,74.31
2017-09-01T02:25:48.944Z,74.12
2017-09-01T02:26:29.521Z,74.69
2017-09-01T02:27:10.078Z,74.31
2017-09-01T02:27:50.639Z,73.55
2017-09-01T02:28:31.249Z,73.55
2017-09-01T02:29:11.807Z,72.97
2017-09-01T02:29:52.384Z,73.07
2017-09-01T02:30:32.966Z,73.35
2017-09-01T02:31:13.584Z,73.83
2017-09-01T02:31:54.128Z,74.22
2017-09-01T02:32:34.696Z,74.31
2017-09-01T02:33:15.274Z,74.31
2017-09-01T02:33:55.858Z,74.79
2017-09-01T02:34:36.420Z,75.08
2017-09-01T02:35:17.000Z,74.31
2017-09-01T02:35:57.577Z,74.31
2017-09-01T02:36:38.148Z,74.98
2017-09-01T02:37:18.801Z,74.02
2017-09-01T02:37:59.362Z,74.12
2017-09-01T02:38:39.935Z,74.31
2017-09-01T02:39:20.518Z,74.89
2017-09-01T02:40:01.107Z,74.69
2017-09-01T02:40:41.667Z,74.31
2017-09-01T02:41:22.237Z,74.12
2017-09-01T02:42:02.820Z,74.41
2017-09-01T02:42:43.442Z,74.51
2017-09-01T02:43:24.011Z,74.41
2017-09-01T02:44:04.581Z,74.31
2017-09-01T02:44:45.150Z,74.12
2017-09-01T02:45:25.722Z,74.6
2017-09-01T02:46:06.305Z,74.31
2017-09-01T02:46:46.884Z,74.22
2017-09-01T02:47:27.450Z,74.41
2017-09-01T02:48:08.034Z,74.41
2017-09-01T02:48:48.605Z,74.89
2017-09-01T02:49:29.173Z,75.08
2017-09-01T02:50:09.765Z,74.08
2017-09-01T02:50:50.341Z,74.31
2017-09-01T02:51:30.925Z,74.37
2017-09-01T02:52:11.491Z,74.95
2017-09-01T02:52:52.075Z,74.76
2017-09-01T02:53:32.666Z,74.95
2017-09-01T02:54:13.217Z,75.04
2017-09-01T02:54:53.802Z,75.18
2017-09-01T02:55:34.366Z,75.23
2017-09-01T02:56:14.928Z,75.33
2017-09-01T02:56:55.499Z,74.95
2017-09-01T02:57:36.067Z,75.14
2017-09-01T02:58:16.635Z,75.52
2017-09-01T02:58:57.199Z,75.23
2017-09-01T02:59:37.785Z,74.95
2017-09-01T03:00:18.354Z,75.23
2017-09-01T03:00:58.949Z,74.95
2017-09-01T03:01:39.539Z,75.23
2017-09-01T03:02:20.116Z,75.27
2017-09-01T03:03:00.688Z,75.65
2017-09-01T03:03:41.265Z,75.14
2017-09-01T03:04:21.845Z,75.18
2017-09-01T03:05:02.418Z,75.62
2017-09-01T03:05:42.989Z,75.71
2017-09-01T03:06:23.573Z,75.71
2017-09-01T03:07:04.191Z,75.81
2017-09-01T03:07:44.754Z,76
2017-09-01T03:08:25.320Z,75.71
2017-09-01T03:09:05.915Z,75.9
2017-09-01T03:09:46.478Z,75.71
2017-09-01T03:10:27.087Z,75.71
2017-09-01T03:11:07.658Z,75.71
2017-09-01T03:11:48.228Z,76.29
2017-09-01T03:12:28.823Z,76.1
2017-09-01T03:13:09.377Z,76.39
2017-09-01T03:13:49.953Z,76.48
2017-09-01T03:14:30.524Z,76.57
2017-09-01T03:15:11.098Z,76.48
2017-09-01T03:15:51.681Z,76.39
2017-09-01T03:16:32.245Z,76.1
2017-09-01T03:17:12.826Z,76.1
2017-09-01T03:17:53.408Z,76.29
2017-09-01T03:18:33.963Z,76.19
2017-09-01T03:19:14.565Z,76.57
2017-09-01T03:19:55.148Z,76.1
2017-09-01T03:20:35.709Z,76.1
2017-09-01T03:21:16.285Z,76.57
2017-09-01T03:21:56.872Z,76.67
2017-09-01T03:22:37.468Z,76.19
2017-09-01T03:23:18.075Z,76.57
2017-09-01T03:23:58.626Z,76.67
2017-09-01T03:24:39.196Z,76.77
2017-09-01T03:25:19.762Z,76.67
2017-09-01T03:26:00.326Z,76.57
2017-09-01T03:26:40.896Z,76.48
2017-09-01T03:27:21.483Z,76.39
2017-09-01T03:28:02.081Z,76.19
2017-09-01T03:28:42.645Z,76.19
2017-09-01T03:29:23.224Z,77.06
2017-09-01T03:30:03.794Z,76.19
2017-09-01T03:30:44.371Z,76
2017-09-01T03:31:24.951Z,76.48
2017-09-01T03:32:05.526Z,76.67
2017-09-01T03:32:46.123Z,76.86
2017-09-01T03:33:26.683Z,76.48
2017-09-01T03:34:07.261Z,76.57
2017-09-01T03:34:47.832Z,76.15
2017-09-01T03:35:28.433Z,76.48
2017-09-01T03:36:09.010Z,77.11
2017-09-01T03:36:49.610Z,76.92
2017-09-01T03:37:30.185Z,77.21
2017-09-01T03:38:10.757Z,77.21
2017-09-01T03:38:51.353Z,77.5
2017-09-01T03:39:31.916Z,77.21
2017-09-01T03:40:12.495Z,77.59
2017-09-01T03:40:53.069Z,77.69
2017-09-01T03:41:33.650Z,77.88
2017-09-01T03:42:14.217Z,77.78
2017-09-01T03:42:54.787Z,77.59
2017-09-01T03:43:35.354Z,77.4
2017-09-01T03:44:15.922Z,77.5
2017-09-01T03:44:56.505Z,77.31
2017-09-01T03:45:37.087Z,77.31
2017-09-01T03:46:17.665Z,77.78
2017-09-01T03:46:58.228Z,77.78
2017-09-01T03:47:38.811Z,77.69
2017-09-01T03:48:19.412Z,77.59
2017-09-01T03:48:59.996Z,77.78
2017-09-01T03:49:40.568Z,77.73
2017-09-01T03:50:21.139Z,77.44
2017-09-01T03:51:01.714Z,77.59
2017-09-01T03:51:42.288Z,77.4
2017-09-01T03:52:22.863Z,77.31
2017-09-01T03:53:03.429Z,77.31
2017-09-01T03:53:44.006Z,77.78
2017-09-01T03:54:24.589Z,77.69
2017-09-01T03:55:05.165Z,78.07
2017-09-01T03:55:45.727Z,77.88
2017-09-01T03:56:26.308Z,77.69
2017-09-01T03:57:06.876Z,78.74
2017-09-01T03:57:47.457Z,78.55
2017-09-01T03:58:28.089Z,78.55
2017-09-01T03:59:08.652Z,77.88
2017-09-01T03:59:49.235Z,77.78
2017-09-01T04:00:29.821Z,77.69
2017-09-01T04:01:10.413Z,77.88
2017-09-01T04:01:50.996Z,77.69
2017-09-01T04:02:31.575Z,77.97
2017-09-01T04:03:12.132Z,77.88
2017-09-01T04:03:52.704Z,78.55
2017-09-01T04:04:33.271Z,77.78
2017-09-01T04:05:13.869Z,78.27
2017-09-01T04:05:54.442Z,78.74
2017-09-01T04:06:35.004Z,77.78
2017-09-01T04:07:15.571Z,78.55
2017-09-01T04:07:56.177Z,78.36
2017-09-01T04:08:36.739Z,78.64
2017-09-01T04:09:17.311Z,78.45
2017-09-01T04:09:57.879Z,78.45
2017-09-01T04:10:38.451Z,78.45
2017-09-01T04:11:19.025Z,78.36
2017-09-01T04:11:59.613Z,78.45
2017-09-01T04:12:40.180Z,78.17
2017-09-01T04:13:20.746Z,78.45
2017-09-01T04:14:01.326Z,78.64
2017-09-01T04:14:41.910Z,78.36
2017-09-01T04:15:22.465Z,78.55
2017-09-01T04:16:03.055Z,77.97
2017-09-01T04:16:43.602Z,78.45
2017-09-01T04:17:24.167Z,78.64
2017-09-01T04:18:04.741Z,78.55
2017-09-01T04:18:45.310Z,78.55
2017-09-01T04:19:25.892Z,78.55
2017-09-01T04:20:06.482Z,78.55
2017-09-01T04:20:47.042Z,79.22
2017-09-01T04:21:27.606Z,79.32
2017-09-01T04:22:08.181Z,79.22
2017-09-01T04:22:48.751Z,79.22
2017-09-01T04:23:29.308Z,79.32
2017-09-01T04:24:09.885Z,79.13
2017-09-01T04:24:50.461Z,79.32
2017-09-01T04:25:31.045Z,78.74
2017-09-01T04:26:11.628Z,78.74
2017-09-01T04:26:52.193Z,78.55
2017-09-01T04:27:32.781Z,78.55
2017-09-01T04:28:13.363Z,79.22
2017-09-01T04:28:53.951Z,79.03
2017-09-01T04:29:34.535Z,79.03
2017-09-01T04:30:15.102Z,79.32
2017-09-01T04:30:55.668Z,78.93
2017-09-01T04:31:36.232Z,79.22
2017-09-01T04:32:16.794Z,79.32
2017-09-01T04:32:57.373Z,79.22
2017-09-01T04:33:37.964Z,79.32
2017-09-01T04:34:18.555Z,79.22
2017-09-01T04:34:59.248Z,79.22
2017-09-01T04:35:39.751Z,78.84
2017-09-01T04:36:20.310Z,79.13
2017-09-01T04:37:00.901Z,79.22
2017-09-01T04:37:41.467Z,79.22
2017-09-01T04:38:22.034Z,78.84
2017-09-01T04:39:02.593Z,78.45
2017-09-01T04:39:43.167Z,78.74
2017-09-01T04:40:23.747Z,79.22
2017-09-01T04:41:04.314Z,78.93
2017-09-01T04:41:44.929Z,79.22
2017-09-01T04:42:25.496Z,78.93
2017-09-01T04:43:06.077Z,79.51
2017-09-01T04:43:46.652Z,79.7
2017-09-01T04:44:27.238Z,79.7
2017-09-01T04:45:07.860Z,79.7
2017-09-01T04:45:48.438Z,79.51
2017-09-01T04:46:29.001Z,79.41
2017-09-01T04:47:09.582Z,79.51
2017-09-01T04:47:50.140Z,79.32
2017-09-01T04:48:30.718Z,79.51
2017-09-01T04:49:11.292Z,78.93
2017-09-01T04:49:51.857Z,79.13
2017-09-01T04:50:32.477Z,78.64
2017-09-01T04:51:13.055Z,79.22
2017-09-01T04:51:53.613Z,79.32
2017-09-01T04:52:34.194Z,79.6
2017-09-01T04:53:14.762Z,79.32
2017-09-01T04:53:55.313Z,79.51
2017-09-01T04:54:35.884Z,79.41
2017-09-01T04:55:16.463Z,79.51
2017-09-01T04:55:57.045Z,79.7
2017-09-01T04:56:37.620Z,79.6
2017-09-01T04:57:18.204Z,79.7
2017-09-01T04:57:58.780Z,79.6
2017-09-01T04:58:39.349Z,79.7
2017-09-01T04:59:19.914Z,79.41
2017-09-01T05:00:00.497Z,79.41
2017-09-01T05:00:41.052Z,79.7
2017-09-01T05:01:21.658Z,79.51
2017-09-01T05:02:02.239Z,79.6
2017-09-01T05:02:42.796Z,79.32
2017-09-01T05:03:23.374Z,79.6
2017-09-01T05:04:03.948Z,79.51
2017-09-01T05:04:44.539Z,79.6
2017-09-01T05:05:25.078Z,80.18
2017-09-01T05:06:05.676Z,79.51
2017-09-01T05:06:46.222Z,79.6
2017-09-01T05:07:26.799Z,79.41
2017-09-01T05:08:07.396Z,79.51
2017-09-01T05:08:47.967Z,79.22
2017-09-01T05:09:28.538Z,79.41
2017-09-01T05:10:09.120Z,79.6
2017-09-01T05:10:49.705Z,79.7
2017-09-01T05:11:30.296Z,79.6
2017-09-01T05:12:10.890Z,79.41
2017-09-01T05:12:51.468Z,79.51
2017-09-01T05:13:32.043Z,79.7
2017-09-01T05:14:12.615Z,79.45
2017-09-01T05:14:53.212Z,78.93
2017-09-01T05:15:33.774Z,79.22
2017-09-01T05:16:14.390Z,79.22
2017-09-01T05:16:54.972Z,79.03
2017-09-01T05:17:35.549Z,79.03
2017-09-01T05:18:16.130Z,79.32
2017-09-01T05:18:56.694Z,78.84
2017-09-01T05:19:37.259Z,79.36
2017-09-01T05:20:17.840Z,79.22
2017-09-01T05:20:58.507Z,79.22
2017-09-01T05:21:39.107Z,79.13
2017-09-01T05:22:19.688Z,78.69
2017-09-01T05:23:00.254Z,79.16
2017-09-01T05:23:40.841Z,78.69
2017-09-01T05:24:21.424Z,78.45
2017-09-01T05:25:01.997Z,78.93
2017-09-01T05:25:42.593Z,79.32
2017-09-01T05:26:23.176Z,78.93
2017-09-01T05:27:03.755Z,79.22
2017-09-01T05:27:44.346Z,79.26
2017-09-01T05:28:24.910Z,79.32
2017-09-01T05:29:05.495Z,79.07
2017-09-01T05:29:46.096Z,78.93
2017-09-01T05:30:26.681Z,79.26
2017-09-01T05:31:07.254Z,78.78
2017-09-01T05:31:47.827Z,78.78
2017-09-01T05:32:28.420Z,78.69
2017-09-01T05:33:08.990Z,78.84
2017-09-01T05:33:49.575Z,79.22
2017-09-01T05:34:30.179Z,78.45
2017-09-01T05:35:10.743Z,78.07
2017-09-01T05:35:51.311Z,78.59
2017-09-01T05:36:31.959Z,78.27
2017-09-01T05:37:12.527Z,78.36
2017-09-01T05:37:53.110Z,79.32
2017-09-01T05:38:33.679Z,79.13
2017-09-01T05:39:14.249Z,78.64
2017-09-01T05:39:54.821Z,78.36
2017-09-01T05:40:35.387Z,78.27
2017-09-01T05:41:15.956Z,78.55
2017-09-01T05:41:56.526Z,79.32
2017-09-01T05:42:37.100Z,79.03
2017-09-01T05:43:17.674Z,79.22
2017-09-01T05:43:58.245Z,79.03
2017-09-01T05:44:38.830Z,78.93
2017-09-01T05:45:19.404Z,79.22
2017-09-01T05:46:00.097Z,79.26
2017-09-01T05:46:40.675Z,79.22
2017-09-01T05:47:21.291Z,79.36
2017-09-01T05:48:01.854Z,78.64
2017-09-01T05:48:42.434Z,79.26
2017-09-01T05:49:23.019Z,79.26
2017-09-01T05:50:03.598Z,79.26
2017-09-01T05:50:44.186Z,79.16
2017-09-01T05:51:24.751Z,79.07
2017-09-01T05:52:05.329Z,79.22
2017-09-01T05:52:45.900Z,79.26
2017-09-01T05:53:26.487Z,78.97
2017-09-01T05:54:07.052Z,79.07
2017-09-01T05:54:47.651Z,79.16
2017-09-01T05:55:28.221Z,79.26
2017-09-01T05:56:08.801Z,79.36
2017-09-01T05:56:49.386Z,79.26
2017-09-01T05:57:29.984Z,78.78
2017-09-01T05:58:10.551Z,78.69
2017-09-01T05:58:51.152Z,78.49
2017-09-01T05:59:31.727Z,78.69
2017-09-01T06:00:12.320Z,78.78
2017-09-01T06:00:52.884Z,78.2
2017-09-01T06:01:33.474Z,78.4
2017-09-01T06:02:14.047Z,78.3
2017-09-01T06:02:54.613Z,78.3
2017-09-01T06:03:35.188Z,78.02
2017-09-01T06:04:15.773Z,77.63
2017-09-01T06:04:56.381Z,77.53
2017-09-01T06:05:36.954Z,77.82
2017-09-01T06:06:17.532Z,77.92
2017-09-01T06:06:58.128Z,77.92
2017-09-01T06:07:38.702Z,77.34
2017-09-01T06:08:19.263Z,77.53
2017-09-01T06:08:59.847Z,77.44
2017-09-01T06:09:40.413Z,77.34
2017-09-01T06:10:20.988Z,77.63
2017-09-01T06:11:01.572Z,77.34
2017-09-01T06:11:42.157Z,77.25
2017-09-01T06:12:22.717Z,76.86
2017-09-01T06:13:03.286Z,76.67
2017-09-01T06:13:43.856Z,77.44
2017-09-01T06:14:24.418Z,77.53
2017-09-01T06:15:04.988Z,77.63
2017-09-01T06:15:45.560Z,78.11
2017-09-01T06:16:26.127Z,77.34
2017-09-01T06:17:06.705Z,76.96
2017-09-01T06:17:47.285Z,77.15
2017-09-01T06:18:27.852Z,76.77
2017-09-01T06:19:08.431Z,77.73
2017-09-01T06:19:49.009Z,77.53
2017-09-01T06:20:29.570Z,77.63
2017-09-01T06:21:10.170Z,77.92
2017-09-01T06:21:50.772Z,77.34
2017-09-01T06:22:31.352Z,77.82
2017-09-01T06:23:11.928Z,77.82
2017-09-01T06:23:52.510Z,77.92
2017-09-01T06:24:33.074Z,77.82
2017-09-01T06:25:13.641Z,77.73
2017-09-01T06:25:54.219Z,77.25
2017-09-01T06:26:34.790Z,77.44
2017-09-01T06:27:15.392Z,77
2017-09-01T06:27:55.918Z,76.96
2017-09-01T06:28:36.512Z,76.67
2017-09-01T06:29:17.071Z,76.67
2017-09-01T06:29:57.650Z,76.96
2017-09-01T06:30:38.237Z,76.62
2017-09-01T06:31:18.874Z,76.67
2017-09-01T06:31:59.424Z,76.96
2017-09-01T06:32:39.993Z,76.48
2017-09-01T06:33:20.571Z,76.39
2017-09-01T06:34:01.156Z,75.43
2017-09-01T06:34:41.715Z,75.81
2017-09-01T06:35:22.292Z,76.1
2017-09-01T06:36:02.879Z,76.48
2017-09-01T06:36:43.428Z,77.06
2017-09-01T06:37:24.014Z,76.81
2017-09-01T06:38:04.608Z,77.09
2017-09-01T06:38:45.180Z,76.62
2017-09-01T06:39:25.752Z,76.62
2017-09-01T06:40:06.318Z,75.75
2017-09-01T06:40:46.905Z,76.71
2017-09-01T06:41:27.472Z,76.32
2017-09-01T06:42:08.047Z,75.65
2017-09-01T06:42:48.615Z,75.56
2017-09-01T06:43:29.188Z,76.14
2017-09-01T06:44:09.761Z,75.08
2017-09-01T06:44:50.335Z,74.51
2017-09-01T06:45:30.919Z,74.79
2017-09-01T06:46:11.486Z,75.37
2017-09-01T06:46:52.077Z,75.46
2017-09-01T06:47:32.650Z,75.85
2017-09-01T06:48:13.216Z,75.75
2017-09-01T06:48:53.793Z,75.65
2017-09-01T06:49:34.367Z,75.27
2017-09-01T06:50:14.942Z,74.89
2017-09-01T06:50:55.518Z,75.27
2017-09-01T06:51:36.109Z,75.31
2017-09-01T06:52:16.667Z,74.54
2017-09-01T06:52:57.253Z,74.26
2017-09-01T06:53:37.842Z,73.97
2017-09-01T06:54:18.412Z,73.49
2017-09-01T06:54:58.981Z,73.39
2017-09-01T06:55:39.563Z,73.68
2017-09-01T06:56:20.210Z,73.68
2017-09-01T06:57:00.797Z,73.1
2017-09-01T06:57:41.372Z,73.2
2017-09-01T06:58:21.959Z,73.91
2017-09-01T06:59:02.530Z,73.43
2017-09-01T06:59:43.106Z,73.14
2017-09-01T07:00:23.678Z,72.47
2017-09-01T07:01:04.253Z,72.41
2017-09-01T07:01:44.815Z,72.12
2017-09-01T07:02:25.379Z,71.55
2017-09-01T07:03:05.948Z,70.78
2017-09-01T07:03:46.517Z,70.2
2017-09-01T07:04:27.110Z,70.58
2017-09-01T07:05:07.677Z,70.29
2017-09-01T07:05:48.251Z,70.2
2017-09-01T07:06:28.821Z,69.24
2017-09-01T07:07:09.403Z,68.47
2017-09-01T07:07:49.973Z,69.37
2017-09-01T07:08:30.548Z,69.27
2017-09-01T07:09:11.128Z,69.43
2017-09-01T07:09:51.691Z,69.24
2017-09-01T07:10:32.276Z,69.72
2017-09-01T07:11:12.847Z,69.46
2017-09-01T07:11:53.411Z,69.75
2017-09-01T07:12:33.984Z,69.75
2017-09-01T07:13:14.575Z,70.04
2017-09-01T07:13:55.162Z,69.27
2017-09-01T07:14:35.784Z,68.41
2017-09-01T07:15:16.327Z,67.64
2017-09-01T07:15:56.902Z,67.54
2017-09-01T07:16:37.473Z,67.93
2017-09-01T07:17:18.059Z,67.74
2017-09-01T07:17:58.699Z,68.51
2017-09-01T07:18:39.266Z,69.18
2017-09-01T07:19:19.852Z,69.46
2017-09-01T07:20:00.423Z,69.46
2017-09-01T07:20:41.009Z,68.6
2017-09-01T07:21:21.588Z,68.79
2017-09-01T07:22:02.175Z,68.89
2017-09-01T07:22:42.763Z,68.79
2017-09-01T07:23:23.353Z,68.83
2017-09-01T07:24:03.918Z,67.86
2017-09-01T07:24:44.516Z,67.77
2017-09-01T07:25:25.105Z,67.83
2017-09-01T07:26:05.668Z,68.25
2017-09-01T07:26:46.248Z,68.15
2017-09-01T07:27:26.833Z,66.71
2017-09-01T07:28:07.404Z,67.29
2017-09-01T07:28:47.978Z,67.29
2017-09-01T07:29:28.610Z,67.29
2017-09-01T07:30:09.195Z,66.91
2017-09-01T07:30:49.766Z,66.27
2017-09-01T07:31:30.367Z,66.36
2017-09-01T07:32:10.978Z,65.78
2017-09-01T07:32:51.556Z,65.59
2017-09-01T07:33:32.142Z,65.59
2017-09-01T07:34:12.723Z,64.95
2017-09-01T07:34:53.292Z,64.76
2017-09-01T07:35:33.878Z,65.05
2017-09-01T07:36:14.529Z,64.37
2017-09-01T07:36:55.150Z,63.41
2017-09-01T07:37:35.759Z,63.7
2017-09-01T07:38:16.349Z,63.51
2017-09-01T07:38:56.955Z,63.7
2017-09-01T07:39:37.575Z,64.18
2017-09-01T07:40:18.144Z,64.18
2017-09-01T07:40:58.737Z,64.34
2017-09-01T07:41:39.315Z,64.63
2017-09-01T07:42:19.915Z,64.15
2017-09-01T07:43:00.505Z,64.53
2017-09-01T07:43:41.083Z,64.6
2017-09-01T07:44:21.701Z,64.6
2017-09-01T07:45:02.286Z,65.08
2017-09-01T07:45:42.869Z,66.14
2017-09-01T07:46:23.500Z,66.52
2017-09-01T07:47:04.083Z,66.33
2017-09-01T07:47:44.681Z,66.77
2017-09-01T07:48:25.296Z,67
2017-09-01T07:49:05.882Z,66.61
2017-09-01T07:49:46.474Z,66.77
2017-09-01T07:50:27.077Z,67.45
2017-09-01T07:51:07.651Z,67.58
2017-09-01T07:51:48.250Z,67.48
2017-09-01T07:52:28.845Z,67.58
2017-09-01T07:53:09.422Z,66.91
2017-09-01T07:53:50.107Z,66.91
2017-09-01T07:54:30.681Z,66.81
2017-09-01T07:55:11.268Z,66.61
2017-09-01T07:55:51.833Z,66.84
2017-09-01T07:56:32.412Z,66.65
2017-09-01T07:57:12.992Z,65.69
2017-09-01T07:57:53.564Z,64.92
2017-09-01T07:58:34.149Z,64.63
2017-09-01T07:59:14.715Z,64.63
2017-09-01T07:59:55.361Z,64.05
2017-09-01T08:00:35.929Z,65.3
2017-09-01T08:01:16.532Z,65.11
2017-09-01T08:01:57.111Z,65.59
2017-09-01T08:02:37.684Z,65.4
2017-09-01T08:03:18.294Z,64.98
2017-09-01T08:03:58.877Z,64.5
2017-09-01T08:04:39.443Z,65.75
2017-09-01T08:05:20.062Z,66.52
2017-09-01T08:06:00.640Z,66.42
2017-09-01T08:06:41.233Z,66.14
2017-09-01T08:07:21.832Z,66.61
2017-09-01T08:08:02.447Z,66.23
2017-09-01T08:08:43.020Z,66.52
2017-09-01T08:09:23.607Z,66.33
2017-09-01T08:10:04.178Z,66.33
2017-09-01T08:10:44.761Z,65.08
2017-09-01T08:11:25.381Z,66.14
2017-09-01T08:12:05.953Z,66.81
2017-09-01T08:12:46.529Z,66.84
2017-09-01T08:13:27.116Z,66.36
2017-09-01T08:14:07.704Z,66.55
2017-09-01T08:14:48.293Z,66.84
2017-09-01T08:15:28.872Z,64.73
2017-09-01T08:16:09.445Z,63.67
2017-09-01T08:16:50.012Z,63.57
2017-09-01T08:17:30.588Z,63.95
2017-09-01T08:18:11.162Z,63.76
2017-09-01T08:18:51.780Z,63.38
2017-09-01T08:19:32.425Z,63.38
2017-09-01T08:20:13.010Z,64.43
2017-09-01T08:20:53.647Z,64.63
2017-09-01T08:21:34.238Z,64.92
2017-09-01T08:22:14.813Z,65.11
2017-09-01T08:22:55.411Z,65.11
2017-09-01T08:23:35.996Z,64.63
2017-09-01T08:24:16.570Z,64.92
2017-09-01T08:24:57.174Z,64.43
2017-09-01T08:25:37.770Z,64.25
2017-09-01T08:26:18.344Z,64.53
2017-09-01T08:26:58.921Z,65.2
2017-09-01T08:27:39.497Z,65.2
2017-09-01T08:28:20.078Z,64.53
2017-09-01T08:29:00.667Z,64.73
2017-09-01T08:29:41.233Z,64.73
2017-09-01T08:30:21.815Z,64.34
2017-09-01T08:31:02.396Z,64.53
2017-09-01T08:31:43.007Z,64.53
2017-09-01T08:32:23.590Z,64.82
2017-09-01T08:33:04.181Z,64.43
2017-09-01T08:33:44.798Z,64.82
2017-09-01T08:34:25.372Z,64.63
2017-09-01T08:35:05.953Z,64.66
2017-09-01T08:35:46.538Z,64.56
2017-09-01T08:36:27.110Z,63.51
2017-09-01T08:37:07.716Z,63.7
2017-09-01T08:37:48.313Z,63.7
2017-09-01T08:38:28.920Z,64.66
2017-09-01T08:39:09.485Z,64.76
2017-09-01T08:39:50.053Z,64.56
2017-09-01T08:40:30.637Z,64.66
2017-09-01T08:41:11.236Z,64.08
2017-09-01T08:41:51.814Z,63.6
2017-09-01T08:42:32.398Z,63.51
2017-09-01T08:43:12.984Z,63.02
2017-09-01T08:43:53.552Z,62.06
2017-09-01T08:44:34.142Z,61.77